createdAt,value
2019-05-26T00:01:18.805Z,12.30
2019-05-26T00:04:12.488Z,12.30
2019-05-26T00:06:57.209Z,12.40
2019-05-26T00:09:29.947Z,12.40
2019-05-26T00:12:23.392Z,12.20
2019-05-26T00:15:08.090Z,12.20
2019-05-26T00:18:01.942Z,12.20
2019-05-26T00:20:46.415Z,12.20
2019-05-26T00:23:31.160Z,12.20
2019-05-26T00:26:16.191Z,12.20
2019-05-26T00:29:00.888Z,12.40
2019-05-26T00:31:45.147Z,12.50
2019-05-26T00:34:38.668Z,12.50
2019-05-26T00:37:23.672Z,12.30
2019-05-26T00:40:08.500Z,12.20
2019-05-26T00:42:52.865Z,12.10
2019-05-26T00:45:37.611Z,11.90
2019-05-26T00:48:22.478Z,11.80
2019-05-26T00:51:07.944Z,11.70
2019-05-26T00:53:52.644Z,11.60
2019-05-26T00:56:37.324Z,11.80
2019-05-26T00:59:22.165Z,11.90
2019-05-26T01:02:06.939Z,11.90
2019-05-26T01:04:51.774Z,11.90
2019-05-26T01:07:36.302Z,11.70
2019-05-26T01:10:21.212Z,11.70
2019-05-26T01:13:05.924Z,11.70
2019-05-26T01:15:50.332Z,11.50
2019-05-26T01:18:35.043Z,11.40
2019-05-26T01:21:19.928Z,11.40
2019-05-26T01:24:04.226Z,11.30
2019-05-26T01:26:57.995Z,11.30
2019-05-26T01:29:43.044Z,11.30
2019-05-26T01:32:36.908Z,11.30
2019-05-26T01:35:21.585Z,11.30
2019-05-26T01:38:22.351Z,11.20
2019-05-26T01:40:53.669Z,11.30
2019-05-26T01:43:38.812Z,11.40
2019-05-26T01:46:23.464Z,11.50
2019-05-26T01:49:07.797Z,11.50
2019-05-26T01:51:53.464Z,11.40
2019-05-26T01:54:40.719Z,11.30
2019-05-26T01:57:24.481Z,11.30
2019-05-26T02:00:09.339Z,11.30
2019-05-26T02:02:53.989Z,11.20
2019-05-26T02:05:38.741Z,11.10
2019-05-26T02:08:38.301Z,11.10
2019-05-26T02:11:10.197Z,11.20
2019-05-26T02:13:55.287Z,11.20
2019-05-26T02:16:40.320Z,11.20
2019-05-26T02:19:34.756Z,11.10
2019-05-26T02:22:28.567Z,11.00
2019-05-26T02:25:22.485Z,10.90
2019-05-26T02:28:07.600Z,10.90
2019-05-26T02:31:01.688Z,10.90
2019-05-26T02:33:47.832Z,11.00
2019-05-26T02:36:32.655Z,11.00
2019-05-26T02:39:17.121Z,11.00
2019-05-26T02:42:01.962Z,11.00
2019-05-26T02:44:46.364Z,10.90
2019-05-26T02:47:41.463Z,10.80
2019-05-26T02:50:35.131Z,10.70
2019-05-26T02:53:24.560Z,10.70
2019-05-26T02:56:07.119Z,10.70
2019-05-26T02:59:00.360Z,10.70
2019-05-26T03:02:02.149Z,10.70
2019-05-26T03:04:31.495Z,10.60
2019-05-26T03:07:16.259Z,10.60
2019-05-26T03:10:00.964Z,10.60
2019-05-26T03:12:46.222Z,10.60
2019-05-26T03:15:31.169Z,10.60
2019-05-26T03:18:25.024Z,10.60
2019-05-26T03:21:11.134Z,10.50
2019-05-26T03:23:56.488Z,10.40
2019-05-26T03:26:50.911Z,10.40
2019-05-26T03:29:44.382Z,10.50
2019-05-26T03:32:29.233Z,10.40
2019-05-26T03:35:14.109Z,10.40
2019-05-26T03:37:59.700Z,10.40
2019-05-26T03:40:44.174Z,10.40
2019-05-26T03:43:37.912Z,10.40
2019-05-26T03:46:22.635Z,10.40
2019-05-26T03:49:07.481Z,10.40
2019-05-26T03:51:52.265Z,10.30
2019-05-26T03:54:37.402Z,10.30
2019-05-26T03:57:31.032Z,10.20
2019-05-26T04:00:15.503Z,10.10
2019-05-26T04:02:59.937Z,10.10
2019-05-26T04:05:44.701Z,10.10
2019-05-26T04:08:30.250Z,10.10
2019-05-26T04:11:15.463Z,10.10
2019-05-26T04:14:09.199Z,10.20
2019-05-26T04:16:56.332Z,10.30
2019-05-26T04:19:40.409Z,10.40
2019-05-26T04:22:25.025Z,10.50
2019-05-26T04:25:09.925Z,10.50
2019-05-26T04:27:54.656Z,10.50
2019-05-26T04:30:39.257Z,10.60
2019-05-26T04:33:24.024Z,10.60
2019-05-26T04:36:08.669Z,10.70
2019-05-26T04:38:53.158Z,10.70
2019-05-26T04:41:46.589Z,10.70
2019-05-26T04:44:31.336Z,10.70
2019-05-26T04:47:16.198Z,10.70
2019-05-26T04:50:00.974Z,10.80
2019-05-26T04:53:04.601Z,10.90
2019-05-26T04:55:32.056Z,11.00
2019-05-26T04:58:16.920Z,11.20
2019-05-26T05:01:02.256Z,11.30
2019-05-26T05:03:56.120Z,11.50
2019-05-26T05:06:40.908Z,11.70
2019-05-26T05:09:25.681Z,11.90
2019-05-26T05:12:10.932Z,12.00
2019-05-26T05:15:04.628Z,12.10
2019-05-26T05:17:49.285Z,12.20
2019-05-26T05:20:34.092Z,12.30
2019-05-26T05:23:18.720Z,12.40
2019-05-26T05:26:03.485Z,12.50
2019-05-26T05:28:47.844Z,12.70
2019-05-26T05:31:32.488Z,12.90
2019-05-26T05:34:17.328Z,13.10
2019-05-26T05:37:02.196Z,13.40
2019-05-26T05:39:47.316Z,13.50
2019-05-26T05:42:32.008Z,13.70
2019-05-26T05:45:16.431Z,13.80
2019-05-26T05:48:00.995Z,14.00
2019-05-26T05:50:54.654Z,14.10
2019-05-26T05:53:39.376Z,14.20
2019-05-26T05:56:23.864Z,14.30
2019-05-26T05:59:08.324Z,14.50
2019-05-26T06:01:53.173Z,14.50
2019-05-26T06:04:37.719Z,14.70
2019-05-26T06:07:33.839Z,14.80
2019-05-26T06:10:18.955Z,14.90
2019-05-26T06:13:04.236Z,15.00
2019-05-26T06:15:58.160Z,15.10
2019-05-26T06:18:42.803Z,15.30
2019-05-26T06:21:27.636Z,15.40
2019-05-26T06:24:12.429Z,15.50
2019-05-26T06:26:57.559Z,15.70
2019-05-26T06:29:57.893Z,15.80
2019-05-26T06:32:30.268Z,15.80
2019-05-26T06:35:15.260Z,15.90
2019-05-26T06:38:09.166Z,16.10
2019-05-26T06:40:54.212Z,16.20
2019-05-26T06:43:48.261Z,16.30
2019-05-26T06:46:33.928Z,16.30
2019-05-26T06:49:19.112Z,16.50
2019-05-26T06:52:03.802Z,16.60
2019-05-26T06:54:48.594Z,16.80
2019-05-26T06:57:33.402Z,16.80
2019-05-26T07:00:18.148Z,16.80
2019-05-26T07:03:02.988Z,16.90
2019-05-26T07:05:48.032Z,17.10
2019-05-26T07:08:32.650Z,17.20
2019-05-26T07:11:17.364Z,17.30
2019-05-26T07:14:02.416Z,17.30
2019-05-26T07:16:47.131Z,17.40
2019-05-26T07:19:32.245Z,17.40
2019-05-26T07:22:26.480Z,17.60
2019-05-26T07:25:20.380Z,17.60
2019-05-26T07:28:05.955Z,17.70
2019-05-26T07:30:50.950Z,17.80
2019-05-26T07:33:36.290Z,17.80
2019-05-26T07:36:21.405Z,17.90
2019-05-26T07:39:15.062Z,17.90
2019-05-26T07:42:09.848Z,18.00
2019-05-26T07:44:46.444Z,18.10
2019-05-26T07:47:31.256Z,18.10
2019-05-26T07:50:16.014Z,18.10
2019-05-26T07:53:00.760Z,18.20
2019-05-26T07:55:45.692Z,18.10
2019-05-26T07:58:30.466Z,18.10
2019-05-26T08:01:15.686Z,18.10
2019-05-26T08:04:09.448Z,18.30
2019-05-26T08:06:54.276Z,18.40
2019-05-26T08:09:39.144Z,18.60
2019-05-26T08:12:28.166Z,18.70
2019-05-26T08:15:22.393Z,18.80
2019-05-26T08:18:07.532Z,18.80
2019-05-26T08:20:52.203Z,19.00
2019-05-26T08:23:37.312Z,19.10
2019-05-26T08:26:31.463Z,19.00
2019-05-26T08:29:25.499Z,18.90
2019-05-26T08:32:13.294Z,19.00
2019-05-26T08:34:58.860Z,19.10
2019-05-26T08:37:52.363Z,19.20
2019-05-26T08:40:36.816Z,19.30
2019-05-26T08:43:21.676Z,19.30
2019-05-26T08:46:06.679Z,19.30
2019-05-26T08:48:51.464Z,19.30
2019-05-26T08:51:36.759Z,19.30
2019-05-26T08:54:30.354Z,19.40
2019-05-26T08:57:15.335Z,19.50
2019-05-26T08:59:59.706Z,19.60
2019-05-26T09:02:44.608Z,19.70
2019-05-26T09:05:29.543Z,19.90
2019-05-26T09:08:14.472Z,20.10
2019-05-26T09:10:59.352Z,20.20
2019-05-26T09:13:44.268Z,20.30
2019-05-26T09:16:38.718Z,20.30
2019-05-26T09:19:32.357Z,20.50
2019-05-26T09:22:17.175Z,20.50
2019-05-26T09:25:02.217Z,20.50
2019-05-26T09:27:48.125Z,20.40
2019-05-26T09:30:33.489Z,20.50
2019-05-26T09:33:27.283Z,20.70
2019-05-26T09:36:12.296Z,20.90
2019-05-26T09:38:56.692Z,21.10
2019-05-26T09:41:41.221Z,21.30
2019-05-26T09:44:25.980Z,21.60
2019-05-26T09:47:10.867Z,21.70
2019-05-26T09:49:55.832Z,21.90
2019-05-26T09:52:40.751Z,22.10
2019-05-26T09:55:25.571Z,22.30
2019-05-26T09:58:10.889Z,22.30
2019-05-26T10:01:04.726Z,22.10
2019-05-26T10:03:49.295Z,22.00
2019-05-26T10:06:33.810Z,21.90
2019-05-26T10:09:19.196Z,21.90
2019-05-26T10:12:03.901Z,21.90
2019-05-26T10:14:48.960Z,21.70
2019-05-26T10:17:43.043Z,21.90
2019-05-26T10:20:27.804Z,22.10
2019-05-26T10:23:12.752Z,22.40
2019-05-26T10:26:06.709Z,22.70
2019-05-26T10:28:51.895Z,23.00
2019-05-26T10:31:45.660Z,23.30
2019-05-26T10:34:30.268Z,23.60
2019-05-26T10:37:14.708Z,23.80
2019-05-26T10:40:09.683Z,24.00
2019-05-26T10:43:09.296Z,24.10
2019-05-26T10:45:54.212Z,24.20
2019-05-26T10:48:39.081Z,24.30
2019-05-26T10:51:23.733Z,24.40
2019-05-26T10:54:08.845Z,24.40
2019-05-26T10:56:53.572Z,24.20
2019-05-26T10:59:38.464Z,24.00
2019-05-26T11:02:32.877Z,23.70
2019-05-26T11:05:27.064Z,23.70
2019-05-26T11:08:21.013Z,23.70
2019-05-26T11:11:15.284Z,23.60
2019-05-26T11:14:09.156Z,23.70
2019-05-26T11:16:54.122Z,23.90
2019-05-26T11:19:48.079Z,24.00
2019-05-26T11:22:33.010Z,24.00
2019-05-26T11:25:26.791Z,24.20
2019-05-26T11:28:11.820Z,24.40
2019-05-26T11:30:56.645Z,24.70
2019-05-26T11:33:42.620Z,25.00
2019-05-26T11:36:27.684Z,25.10
2019-05-26T11:39:13.191Z,25.20
2019-05-26T11:42:13.133Z,25.20
2019-05-26T11:44:53.081Z,25.10
2019-05-26T11:47:38.276Z,25.10
2019-05-26T11:50:32.345Z,25.10
2019-05-26T11:53:26.594Z,25.00
2019-05-26T11:56:20.780Z,24.80
2019-05-26T11:59:15.012Z,24.70
2019-05-26T12:02:08.736Z,24.30
2019-05-26T12:04:53.476Z,24.20
2019-05-26T12:07:37.931Z,24.20
2019-05-26T12:10:22.836Z,24.20
2019-05-26T12:13:07.753Z,24.10
2019-05-26T12:15:52.479Z,24.00
2019-05-26T12:18:46.947Z,24.00
2019-05-26T12:21:31.716Z,23.80
2019-05-26T12:24:16.724Z,23.40
2019-05-26T12:27:10.711Z,23.60
2019-05-26T12:29:55.211Z,23.70
2019-05-26T12:32:39.871Z,24.00
2019-05-26T12:35:27.600Z,24.40
2019-05-26T12:38:12.297Z,24.80
2019-05-26T12:40:58.267Z,25.00
2019-05-26T12:43:52.143Z,25.20
2019-05-26T12:46:37.060Z,25.60
2019-05-26T12:49:31.044Z,25.80
2019-05-26T12:52:15.687Z,26.10
2019-05-26T12:55:00.133Z,26.00
2019-05-26T12:57:45.233Z,26.00
2019-05-26T13:00:47.091Z,25.80
2019-05-26T13:03:16.589Z,25.70
2019-05-26T13:06:01.379Z,25.40
2019-05-26T13:08:45.676Z,25.30
2019-05-26T13:11:30.188Z,25.10
2019-05-26T13:14:15.328Z,24.90
2019-05-26T13:17:01.725Z,24.80
2019-05-26T13:19:47.252Z,25.10
2019-05-26T13:22:41.281Z,25.50
2019-05-26T13:25:25.804Z,26.00
2019-05-26T13:28:10.609Z,26.40
2019-05-26T13:30:55.588Z,26.70
2019-05-26T13:33:40.176Z,26.80
2019-05-26T13:36:24.747Z,26.90
2019-05-26T13:39:09.561Z,27.20
2019-05-26T13:41:54.187Z,27.50
2019-05-26T13:44:39.284Z,27.80
2019-05-26T13:47:26.549Z,28.00
2019-05-26T13:50:11.603Z,28.10
2019-05-26T13:52:56.875Z,28.20
2019-05-26T13:55:41.963Z,28.10
2019-05-26T13:58:27.285Z,28.00
2019-05-26T14:01:21.563Z,28.10
2019-05-26T14:04:15.061Z,28.40
2019-05-26T14:06:59.903Z,28.70
2019-05-26T14:09:44.748Z,28.90
2019-05-26T14:12:30.041Z,28.90
2019-05-26T14:15:36.827Z,28.90
2019-05-26T14:18:10.182Z,29.20
2019-05-26T14:20:55.260Z,29.40
2019-05-26T14:23:49.447Z,29.70
2019-05-26T14:26:43.643Z,29.80
2019-05-26T14:29:37.419Z,29.80
2019-05-26T14:32:21.884Z,30.00
2019-05-26T14:35:06.675Z,30.00
2019-05-26T14:37:51.133Z,30.20
2019-05-26T14:40:36.469Z,30.20
2019-05-26T14:43:21.351Z,30.00
2019-05-26T14:46:06.084Z,30.00
2019-05-26T14:48:50.511Z,30.00
2019-05-26T14:51:34.988Z,30.10
2019-05-26T14:54:20.073Z,29.80
2019-05-26T14:57:04.485Z,29.70
2019-05-26T14:59:57.931Z,29.70
2019-05-26T15:02:42.538Z,29.80
2019-05-26T15:05:27.556Z,29.90
2019-05-26T15:08:12.694Z,30.00
2019-05-26T15:11:06.783Z,30.00
2019-05-26T15:14:00.436Z,30.10
2019-05-26T15:16:45.664Z,30.20
2019-05-26T15:19:39.648Z,30.10
2019-05-26T15:22:25.156Z,30.10
2019-05-26T15:25:10.045Z,30.00
2019-05-26T15:27:54.453Z,30.10
2019-05-26T15:30:48.072Z,30.00
2019-05-26T15:33:32.704Z,29.90
2019-05-26T15:36:17.620Z,29.90
2019-05-26T15:39:09.771Z,29.90
2019-05-26T15:42:02.192Z,29.90
2019-05-26T15:44:56.024Z,29.50
2019-05-26T15:47:50.268Z,29.10
2019-05-26T15:50:44.319Z,29.00
2019-05-26T15:53:29.048Z,28.90
2019-05-26T15:56:13.917Z,28.60
2019-05-26T15:58:59.169Z,28.20
2019-05-26T16:01:52.621Z,27.70
2019-05-26T16:04:37.472Z,27.70
2019-05-26T16:07:22.356Z,27.60
2019-05-26T16:10:07.249Z,27.70
2019-05-26T16:13:01.251Z,27.90
2019-05-26T16:15:46.228Z,28.10
2019-05-26T16:18:40.432Z,28.10
2019-05-26T16:21:34.171Z,28.20
2019-05-26T16:24:18.967Z,28.20
2019-05-26T16:27:18.255Z,28.10
2019-05-26T16:29:49.821Z,28.10
2019-05-26T16:32:34.716Z,28.00
2019-05-26T16:35:19.463Z,27.90
2019-05-26T16:38:04.768Z,27.80
2019-05-26T16:40:50.171Z,27.80
2019-05-26T16:43:43.615Z,27.70
2019-05-26T16:46:28.992Z,27.60
2019-05-26T16:49:22.493Z,27.50
2019-05-26T16:52:07.441Z,27.50
2019-05-26T16:54:52.381Z,27.60
2019-05-26T16:57:46.271Z,27.60
2019-05-26T17:00:31.713Z,27.40
2019-05-26T17:03:25.360Z,27.20
2019-05-26T17:06:10.270Z,27.00
2019-05-26T17:09:04.428Z,26.90
2019-05-26T17:11:58.658Z,26.80
2019-05-26T17:14:53.084Z,26.90
2019-05-26T17:17:46.968Z,26.80
2019-05-26T17:20:40.983Z,26.70
2019-05-26T17:23:34.756Z,26.60
2019-05-26T17:26:19.309Z,26.40
2019-05-26T17:29:04.149Z,26.30
2019-05-26T17:31:49.061Z,26.20
2019-05-26T17:34:34.266Z,26.20
2019-05-26T17:37:19.118Z,26.20
2019-05-26T17:40:13.122Z,26.00
2019-05-26T17:42:57.444Z,25.80
2019-05-26T17:45:41.949Z,25.80
2019-05-26T17:48:26.847Z,25.70
2019-05-26T17:51:11.195Z,25.60
2019-05-26T17:54:04.604Z,25.40
2019-05-26T17:56:49.547Z,25.20
2019-05-26T17:59:34.361Z,25.10
2019-05-26T18:02:19.408Z,24.80
2019-05-26T18:05:04.377Z,24.60
2019-05-26T18:08:00.215Z,24.30
2019-05-26T18:10:53.987Z,24.00
2019-05-26T18:13:38.657Z,23.70
2019-05-26T18:16:23.620Z,23.70
2019-05-26T18:19:08.423Z,23.60
2019-05-26T18:21:53.209Z,23.40
2019-05-26T18:24:37.955Z,23.20
2019-05-26T18:27:22.764Z,23.10
2019-05-26T18:30:07.483Z,23.10
2019-05-26T18:32:52.552Z,23.00
2019-05-26T18:35:46.333Z,22.90
2019-05-26T18:38:31.712Z,22.70
2019-05-26T18:41:25.423Z,22.50
2019-05-26T18:44:10.679Z,22.50
2019-05-26T18:47:04.592Z,22.40
2019-05-26T18:49:49.208Z,22.40
2019-05-26T18:52:34.497Z,22.30
2019-05-26T18:55:28.432Z,22.10
2019-05-26T18:58:22.252Z,21.70
2019-05-26T19:01:07.022Z,21.40
2019-05-26T19:04:01.232Z,21.10
2019-05-26T19:06:46.199Z,20.70
2019-05-26T19:09:31.318Z,20.30
2019-05-26T19:12:24.854Z,19.80
2019-05-26T19:15:09.502Z,19.50
2019-05-26T19:17:54.137Z,19.30
2019-05-26T19:20:39.073Z,19.00
2019-05-26T19:23:24.236Z,18.90
2019-05-26T19:26:09.212Z,18.80
2019-05-26T19:28:55.751Z,18.50
2019-05-26T19:31:49.664Z,18.20
2019-05-26T19:34:34.379Z,18.00
2019-05-26T19:37:19.074Z,17.80
2019-05-26T19:40:03.988Z,17.70
2019-05-26T19:42:58.140Z,17.60
2019-05-26T19:45:43.426Z,17.50
2019-05-26T19:48:37.522Z,17.30
2019-05-26T19:51:30.975Z,17.10
2019-05-26T19:54:15.804Z,17.00
2019-05-26T19:57:00.710Z,16.80
2019-05-26T19:59:45.644Z,16.80
2019-05-26T20:02:30.757Z,16.60
2019-05-26T20:05:17.160Z,16.50
2019-05-26T20:08:10.994Z,16.40
2019-05-26T20:10:55.922Z,16.30
2019-05-26T20:13:49.675Z,16.20
2019-05-26T20:16:34.628Z,16.10
2019-05-26T20:19:19.796Z,15.90
2019-05-26T20:22:13.657Z,15.90
2019-05-26T20:24:58.687Z,15.80
2019-05-26T20:27:52.644Z,15.80
2019-05-26T20:30:38.192Z,15.70
2019-05-26T20:33:23.413Z,15.70
2019-05-26T20:36:07.756Z,15.80
2019-05-26T20:38:52.600Z,16.00
2019-05-26T20:41:37.281Z,16.20
2019-05-26T20:44:30.594Z,16.20
2019-05-26T20:47:15.607Z,16.10
2019-05-26T20:50:00.724Z,16.20
2019-05-26T20:52:46.909Z,16.10
2019-05-26T20:55:31.985Z,16.00
2019-05-26T20:58:26.031Z,15.90
2019-05-26T21:01:19.832Z,15.90
2019-05-26T21:04:04.955Z,15.90
2019-05-26T21:06:58.730Z,16.00
2019-05-26T21:09:43.603Z,16.10
2019-05-26T21:12:28.612Z,16.10
2019-05-26T21:15:22.587Z,16.10
2019-05-26T21:18:07.400Z,15.70
2019-05-26T21:20:52.560Z,15.40
2019-05-26T21:23:46.141Z,15.10
2019-05-26T21:26:30.581Z,14.90
2019-05-26T21:29:15.326Z,14.80
2019-05-26T21:32:00.068Z,14.80
2019-05-26T21:34:45.016Z,14.60
2019-05-26T21:37:29.559Z,14.50
2019-05-26T21:40:13.992Z,14.50
2019-05-26T21:43:08.011Z,14.50
2019-05-26T21:46:01.655Z,14.50
2019-05-26T21:48:46.671Z,14.40
2019-05-26T21:51:41.025Z,14.50
2019-05-26T21:54:25.523Z,14.50
2019-05-26T21:57:10.742Z,14.50
2019-05-26T21:59:55.702Z,14.40
2019-05-26T22:02:40.128Z,14.40
2019-05-26T22:05:24.840Z,14.30
2019-05-26T22:08:09.812Z,14.20
2019-05-26T22:10:54.456Z,14.10
2019-05-26T22:13:39.307Z,14.20
2019-05-26T22:16:24.103Z,14.20
2019-05-26T22:19:09.032Z,14.20
2019-05-26T22:21:54.008Z,14.20
2019-05-26T22:24:38.825Z,14.10
2019-05-26T22:27:23.581Z,14.00
2019-05-26T22:30:08.115Z,14.00
2019-05-26T22:32:53.192Z,14.00
2019-05-26T22:35:38.528Z,14.00
2019-05-26T22:38:31.961Z,14.20
2019-05-26T22:41:17.116Z,14.40
2019-05-26T22:44:03.077Z,14.60
2019-05-26T22:46:47.986Z,14.70
2019-05-26T22:49:33.582Z,14.60
2019-05-26T22:52:27.167Z,14.40
2019-05-26T22:55:21.325Z,14.20
2019-05-26T22:58:06.137Z,14.10
2019-05-26T23:00:51.035Z,14.00
2019-05-26T23:03:45.184Z,13.90
2019-05-26T23:06:39.018Z,13.80
2019-05-26T23:09:23.785Z,13.80
2019-05-26T23:12:08.784Z,13.70
2019-05-26T23:14:53.480Z,13.70
2019-05-26T23:17:38.428Z,13.60
2019-05-26T23:20:23.656Z,13.60
2019-05-26T23:23:17.391Z,13.60
2019-05-26T23:26:02.093Z,13.50
2019-05-26T23:28:46.962Z,13.50
2019-05-26T23:31:31.876Z,13.40
2019-05-26T23:34:25.631Z,13.40
2019-05-26T23:37:10.580Z,13.30
2019-05-26T23:39:55.669Z,13.30
2019-05-26T23:42:49.472Z,13.40
2019-05-26T23:45:34.553Z,13.40
2019-05-26T23:48:28.436Z,13.40
2019-05-26T23:51:14.084Z,13.40
2019-05-26T23:53:58.960Z,13.40
2019-05-26T23:56:43.920Z,13.50
2019-05-26T23:59:28.473Z,13.50
